Aviation Digital Data Service (ADDS)

Output produced by METARs form (2310 UTC 15 August 2018)
found at http://www.aviationweather.gov/adds/metars/
 
TAF MPPA 152300Z 1600/1706 32005KT 9999 SCT016 SCT080 
     TEMPO 1604/1608 00000KT 
     PROB30 
     TEMPO 1618/1622 21006KT 6000 RA SCT015CB BKN090
       
TAF MPDA 152300Z 1600/1612 22006KT 9999 SCT017 BKN080 
     TEMPO 1606/1610 00000KT
       
TAF MPMG 152300Z 1600/1612 31005KT 9999 SCT018 SCT100 
     TEMPO 1604/1608 00000KT
       
TAF MPTO 152300Z 1600/1706 30005KT 9999 SCT018 SCT090 
     TEMPO 1604/1608 00000KT 
     PROB30 
     TEMPO 1618/1622 19005KT 6000 RA SCT015CB BKN090